Weather observations for the past three days for
Idabel, Mc Curtain County Regional Airport
Metric (Imperial)
Date Time (cdt) Wind (kph) Vis. (km) Weather Sky Cond. Temperature (ºC) Relative Humidity Wind Chill (°C) Heat Index (°C) Pressure Precipitation (cm)
Air Dwpt 6 hour altimeter (cm) sea level (mb) 1 hr 3 hr 6 hr
Max. Min.
04 00:15 SE 13 14.48 A Few Clouds FEW055 28 25 84% 33 76.02 0.0
03 23:55 SE 15 14.48 A Few Clouds FEW055 28 25 84% 33 76.02 0.0
03 23:35 S 11 14.48 A Few Clouds FEW047 FEW060 28 25 84% 33 76.02 0.0
03 23:15 SE 11 14.48 A Few Clouds FEW050 FEW055 28 25 84% 33 76.02 0.0
03 22:55 SE 11 14.48 A Few Clouds FEW055 29 25 79% 35 76.02 0.0
03 22:35 SE 11 14.48 Partly Cloudy SCT060 29 25 79% 35 76.02 0.0
03 22:15 SE 11 14.48 Mostly Cloudy BKN060 29 24 74% 34 76.02 0.0
03 21:55 SE 13 14.48 A Few Clouds FEW060 FEW070 29 24 74% 34 76.02 0.0
03 21:35 SE 9 G 20 14.48 A Few Clouds FEW050 FEW060 FEW070 30 24 70% 35 76.02 0.0
03 21:15 SE 13 14.48 A Few Clouds FEW050 31 23 62% 35 76 0.0
03 20:55 SE 13 14.48 Partly Cloudy SCT055 SCT065 31 23 62% 35 75.97 0.0
03 20:35 SE 7 14.48 Mostly Cloudy BKN060 31 23 62% 35 75.95 0.0
03 20:15 SE 9 14.48 A Few Clouds FEW060 31 23 62% 35 75.92 0.0
03 19:55 SE 7 12.87 Fair CLR 32 23 59% 37 75.9 0.0
03 19:35 SE 11 12.87 Fair CLR 33 23 56% 38 75.9 0.0
03 19:15 SE 11 G 22 12.87 Fair CLR 33 23 56% 38 75.9 0.0
03 18:55 SE 11 G 22 12.87 Fair CLR 34 23 53% 39 75.9 0.0
03 18:35 SE 17 12.87 Fair CLR 34 22 50% 38 75.9 0.0
03 18:15 SE 19 12.87 Fair CLR 34 22 50% 38 75.9 0.0
03 17:55 SE 17 G 26 12.87 A Few Clouds FEW055 34 22 50% 38 75.87 0.0
03 17:35 SE 19 12.87 A Few Clouds FEW055 35 22 47% 39 75.9 0.0
03 17:15 S 15 G 24 12.87 Fair CLR 35 22 47% 39 75.9 0.0
03 16:55 SE 17 12.87 A Few Clouds FEW055 35 22 47% 39 75.9 0.0
03 16:35 S 11 G 24 12.87 A Few Clouds FEW055 35 22 47% 39 75.92 0.0
03 16:15 Vrbl 6 12.87 Partly Cloudy FEW055 SCT085 35 22 47% 39 75.95 0.0
03 13:55 S 13 G 24 11.27 Overcast FEW055 BKN065 OVC075 33 22 52% 37 76.07 0.0
03 13:35 S 17 12.87 Overcast FEW046 SCT055 OVC065 33 22 52% 37 76.1 0.0
03 13:15 S 20 12.87 Mostly Cloudy FEW047 BKN055 BKN065 33 22 52% 37 76.1 0.0
03 12:55 S 17 G 28 12.87 Mostly Cloudy SCT044 BKN055 33 23 56% 38 76.12 0.0
03 12:35 S 13 12.87 Mostly Cloudy SCT042 BKN048 BKN055 32 23 59% 37 76.12 0.0
03 12:15 S 17 G 35 12.87 A Few Clouds FEW039 33 23 56% 38 76.15 0.0
03 11:55 S 20 G 31 12.87 A Few Clouds FEW035 32 23 59% 37 76.15 0.0
03 11:35 S 19 12.87 Partly Cloudy SCT035 32 23 59% 37 76.17 0.0
03 11:15 S 17 11.27 Partly Cloudy SCT031 32 24 63% 38 76.17 0.0
03 10:55 S 20 9.66 A Few Clouds with Haze FEW030 31 24 66% 37 76.17 0.0
03 10:35 SE 19 11.27 Fair CLR 30 25 75% 36 76.17 0.0
03 10:15 S 11 G 22 9.66 Fair with Haze CLR 30 25 75% 36 76.17 0.0
03 09:55 SE 13 G 22 11.27 Partly Cloudy SCT020 29 25 79% 35 76.17 0.0
03 09:35 S 15 G 30 11.27 Mostly Cloudy BKN019 BKN025 28 26 89% 34 76.17 0.0
03 09:15 S 13 11.27 Mostly Cloudy SCT017 BKN025 28 26 89% 34 76.2 0.0
03 08:55 SE 13 11.27 Fair CLR 27 27 100% 32 76.2 0.0
03 08:35 Vrbl 11 11.27 Fair CLR 26 26 100% 28 76.2 0.0
03 08:15 E 13 9.66 Fog/Mist CLR 26 26 100% 28 76.2 0.0
03 07:55 E 7 9.66 Fog/Mist CLR 25 25 100% 25 76.2 0.0
03 07:35 E 9 9.66 Fog/Mist CLR 24 24 100% 23 76.2 0.0
03 07:15 E 9 9.66 Fog/Mist CLR 24 24 100% 23 76.2 0.0
03 06:55 E 9 9.66 Fog/Mist CLR 24 24 100% 23 76.2 0.0
03 06:35 E 11 11.27 Fair CLR 24 24 100% 23 76.17 0.0
03 06:15 E 7 11.27 Fair CLR 24 24 100% 23 76.17 0.0
03 05:55 E 11 11.27 Fair CLR 24 24 100% 23 76.15 0.0
03 05:35 E 11 12.87 Fair CLR 24 24 100% 23 76.12 0.0
03 05:15 E 9 12.87 Fair CLR 24 24 100% 23 76.12 0.0
03 04:55 SE 11 12.87 Fair CLR 24 24 100% 23 76.12 0.0
03 04:35 SE 9 12.87 A Few Clouds FEW060 24 24 100% 23 76.12 0.0
03 04:15 SE 7 12.87 Fair CLR 24 24 100% 23 76.12 0.0
03 03:55 SE 7 12.87 A Few Clouds FEW038 25 25 100% 25 76.12 0.0
03 03:35 SE 9 12.87 Fair CLR 25 25 100% 25 76.12 0.0
03 03:15 SE 11 12.87 Fair CLR 25 25 100% 25 76.12 0.0
03 02:55 SE 13 12.87 Fair CLR 25 25 100% 25 76.1 0.0
03 02:35 SE 11 12.87 Fair CLR 25 25 100% 25 76.1 0.0
03 02:15 SE 13 12.87 Fair CLR 25 25 100% 25 76.1 0.0
03 01:55 SE 9 12.87 Fair CLR 26 26 100% 28 76.1 0.0
03 01:35 SE 13 12.87 Fair CLR 26 26 100% 28 76.12 0.0
03 01:15 SE 11 12.87 Fair CLR 26 26 100% 28 76.12 0.0
03 00:55 SE 9 12.87 Fair CLR 26 26 100% 28 76.12 0.0
03 00:35 SE 11 14.48 Fair CLR 27 25 89% 31 76.12 0.0
03 00:15 SE 9 14.48 Fair CLR 27 25 89% 31 76.12 0.0
02 23:55 SE 11 14.48 A Few Clouds FEW047 27 25 89% 31 76.12 0.0
02 23:35 SE 9 14.48 Fair CLR 27 25 89% 31 76.1 0.0
02 23:15 SE 9 14.48 Fair CLR 27 24 84% 30 76.1 0.0
02 22:55 SE 11 14.48 Fair CLR 28 24 79% 32 76.12 0.0
02 22:35 SE 9 14.48 Fair CLR 28 24 79% 32 76.1 0.0
02 22:15 SE 9 14.48 Fair CLR 28 24 79% 32 76.12 0.0
02 21:55 SE 11 14.48 Fair CLR 29 23 70% 33 76.12 0.0
02 21:35 SE 11 G 20 14.48 Fair CLR 29 23 70% 33 76.1 0.0
02 21:15 SE 11 14.48 Fair CLR 29 23 70% 33 76.1 0.0
02 20:55 SE 15 14.48 Fair CLR 30 23 66% 34 76.07 0.0
02 20:35 SE 11 14.48 Fair CLR 30 23 66% 34 76.05 0.0
02 20:15 SE 13 14.48 Fair CLR 30 23 66% 34 76.02 0.0
02 19:55 SE 13 12.87 Fair CLR 31 23 62% 35 76.05 0.0
02 19:35 SE 15 G 24 12.87 Fair CLR 32 23 59% 37 76.02 0.0
02 19:15 SE 19 G 28 12.87 Fair CLR 32 23 59% 37 76.02 0.0
02 18:55 SE 19 G 30 12.87 Fair CLR 33 23 56% 38 76.02 0.0
02 18:35 SE 26 G 39 12.87 Fair CLR 33 23 56% 38 76 0.0
02 18:15 SE 30 12.87 A Few Clouds FEW060 34 23 53% 39 76 0.0
02 17:55 SE 28 12.87 Fair CLR 35 22 47% 39 75.97 0.0
02 17:35 E 20 G 33 12.87 Partly Cloudy SCT060 35 22 47% 39 75.97 0.0
02 17:15 SE 19 G 30 12.87 A Few Clouds FEW060 36 22 44% 41 75.97 0.0
02 16:55 SE 17 G 30 12.87 A Few Clouds FEW060 36 22 44% 41 75.97 0.0
02 16:35 E 22 G 33 12.87 Partly Cloudy SCT060 37 22 42% 42 76 0.0
02 16:15 E 19 G 30 12.87 Fair CLR 36 22 44% 41 76.02 0.0
02 15:55 SE 19 G 30 12.87 A Few Clouds FEW060 36 22 44% 41 76.02 0.0
02 15:35 E 13 G 28 12.87 A Few Clouds FEW060 36 22 44% 41 76.05 0.0
02 15:15 E 15 G 24 12.87 Fair CLR 36 22 44% 41 76.07 0.0
02 14:55 Vrbl 7 G 28 12.87 A Few Clouds FEW055 36 22 44% 41 76.1 0.0
02 14:35 E 15 G 24 12.87 A Few Clouds FEW055 36 22 44% 41 76.1 0.0
02 14:15 S 17 12.87 Fair CLR 35 22 47% 39 76.12 0.0
02 13:55 E 13 G 28 12.87 Partly Cloudy SCT050 SCT060 34 23 53% 39 76.15 0.0
02 13:35 SE 20 12.87 Partly Cloudy SCT050 SCT055 35 23 50% 41 76.17 0.0
02 13:15 Vrbl 9 G 30 12.87 A Few Clouds FEW050 35 22 47% 39 76.2 0.0
02 12:55 SE 19 12.87 A Few Clouds FEW050 35 23 50% 41 76.23 0.0
02 12:35 SE 15 12.87 A Few Clouds FEW046 34 23 53% 39 76.25 0.0
02 12:15 SE 13 G 24 12.87 A Few Clouds FEW047 34 23 53% 39 76.28 0.0
02 11:55 SE 19 12.87 Fair CLR 34 23 53% 39 76.3 0.0
02 11:35 Vrbl 11 G 24 12.87 Fair CLR 33 24 59% 39 76.3 0.0
02 11:15 Vrbl 7 G 20 12.87 Fair CLR 33 24 59% 39 76.3 0.0
02 10:55 E 11 12.87 Fair CLR 32 23 59% 37 76.33 0.0
02 10:35 SE 13 12.87 Fair CLR 31 23 62% 35 76.3 0.0
02 10:15 Vrbl 11 12.87 Fair CLR 31 24 66% 37 76.3 0.0
02 09:55 Vrbl 7 12.87 Fair CLR 30 24 70% 35 76.3 0.0
02 09:35 Vrbl 11 11.27 Fair CLR 30 24 70% 35 76.3 0.0
02 09:15 Vrbl 7 G 19 11.27 Fair CLR 29 25 79% 35 76.28 0.0
02 08:55 SE 13 11.27 Fair CLR 28 25 84% 33 76.3 0.0
02 08:35 E 13 11.27 Fair CLR 27 25 89% 31 76.3 0.0
02 08:15 E 15 11.27 Fair CLR 26 25 94% 28 76.3 0.0
02 07:55 E 13 11.27 Fair CLR 25 25 100% 25 76.3 0.0
02 07:35 E 11 11.27 Fair CLR 24 24 100% 23 76.28 0.0
02 07:15 E 9 11.27 Fair CLR 23 23 100% 76.28 0.0
02 06:55 E 7 11.27 Fair CLR 23 23 100% 76.28 0.0
02 06:35 E 9 12.87 Fair CLR 23 23 100% 76.25 0.0
02 06:15 E 7 12.87 Fair CLR 23 23 100% 76.25 0.0
02 05:55 NE 9 12.87 Fair CLR 23 23 100% 76.25 0.0
02 05:35 E 7 12.87 A Few Clouds FEW050 24 24 100% 23 76.25 0.0
02 05:15 NE 7 12.87 Fair CLR 24 24 100% 23 76.25 0.0
02 04:55 Calm 12.87 Fair CLR 24 24 100% 23 76.23 0.0
02 04:35 NE 7 14.48 Fair CLR 25 24 94% 26 76.23 0.0
02 04:15 E 9 14.48 A Few Clouds FEW042 FEW049 25 24 94% 26 76.23 0.0
02 03:55 E 9 14.48 A Few Clouds FEW043 FEW050 26 24 89% 28 76.23 0.0
02 03:35 E 6 14.48 A Few Clouds FEW039 FEW047 26 24 89% 28 76.23 0.0
02 03:15 SE 7 14.48 A Few Clouds FEW045 26 24 89% 28 76.23 0.0
02 02:55 SE 11 14.48 Fair CLR 27 24 84% 30 76.23 0.0
02 02:35 SE 11 14.48 Fair CLR 27 23 79% 30 76.23 0.0
02 02:15 SE 9 14.48 Fair CLR 27 23 79% 30 76.23 0.0
02 01:55 SE 15 14.48 Fair CLR 28 23 74% 31 76.23 0.0
02 01:35 SE 13 G 24 14.48 Fair CLR 28 22 70% 31 76.23 0.0
02 01:15 SE 11 G 22 14.48 Fair CLR 28 22 70% 31 76.23 0.0
02 00:55 SE 13 14.48 Fair CLR 28 22 70% 31 76.23 0.0
02 00:35 SE 13 G 24 14.48 Fair CLR 29 21 62% 31 76.2 0.0
02 00:15 SE 11 14.48 Fair CLR 29 21 62% 31 76.2 0.0
01 23:55 SE 9 14.48 A Few Clouds FEW045 29 21 62% 31 76.2 0.0
01 23:35 SE 9 14.48 Mostly Cloudy FEW040 SCT048 BKN055 29 21 62% 31 76.17 0.0
01 23:15 SE 11 14.48 Mostly Cloudy FEW038 BKN050 30 21 59% 33 76.17 0.0
01 22:55 SE 13 14.48 A Few Clouds FEW050 FEW055 30 21 59% 33 76.17 0.0
01 22:35 SE 13 14.48 A Few Clouds FEW060 31 21 55% 34 76.17 0.0
01 22:15 SE 11 14.48 Partly Cloudy SCT060 31 21 55% 34 76.17 0.0
01 21:55 SE 11 14.48 Partly Cloudy SCT060 31 21 55% 34 76.15 0.0
01 21:35 SE 11 14.48 Partly Cloudy SCT060 31 21 55% 34 76.12 0.0
01 21:15 SE 11 14.48 A Few Clouds FEW050 FEW055 32 21 52% 35 76.1 0.0
01 20:55 SE 11 14.48 A Few Clouds FEW050 FEW060 32 21 52% 35 76.07 0.0
01 20:35 SE 9 14.48 Fair CLR 32 21 52% 35 76.07 0.0
01 20:15 SE 7 14.48 Fair CLR 32 21 52% 35 76.05 0.0
01 19:55 SE 7 12.87 Fair CLR 33 21 49% 36 76.02 0.0
01 19:35 SE 9 12.87 Fair CLR 34 21 47% 37 76.02 0.0
01 19:15 SE 11 G 22 12.87 Fair CLR 35 21 44% 38 76.02 0.0
01 18:55 SE 11 G 24 12.87 Fair CLR 35 21 44% 38 76.02 0.0
01 18:35 SE 19 12.87 Fair CLR 36 20 39% 39 76.05 0.0
01 18:15 SE 17 G 30 12.87 A Few Clouds FEW070 36 21 42% 40 76.05 0.0
01 17:55 SE 20 G 31 12.87 Partly Cloudy SCT070 37 21 39% 41 76.05 0.0
01 17:35 SE 20 12.87 Fair CLR 37 21 39% 41 76.05 0.0
01 17:15 SE 13 G 30 12.87 Fair CLR 37 20 37% 40 76.05 0.0
01 16:55 SE 15 G 24 12.87 Partly Cloudy FEW070 SCT110 38 20 35% 41 76.07 0.0
01 16:35 E 22 12.87 Partly Cloudy SCT070 38 21 37% 42 76.07 0.0
01 16:15 E 20 12.87 Partly Cloudy SCT070 SCT080 SCT120 38 21 37% 42 76.1 0.0
01 15:55 E 19 G 28 12.87 A Few Clouds FEW070 FEW120 37 20 37% 40 76.1 0.0
01 15:35 E 9 G 20 12.87 A Few Clouds FEW070 37 21 39% 41 76.1 0.0
01 15:15 S 13 12.87 A Few Clouds FEW070 37 21 39% 41 76.12 0.0
01 14:55 E 11 G 22 12.87 Fair CLR 37 21 39% 41 76.15 0.0
01 14:35 E 13 12.87 Partly Cloudy SCT065 SCT075 37 21 39% 41 76.15 0.0
01 14:15 Vrbl 9 G 24 11.27 Partly Cloudy FEW065 SCT075 37 21 39% 41 76.17 0.0
01 13:55 S 15 12.87 A Few Clouds FEW060 37 21 39% 41 76.2 0.0
01 13:35 Vrbl 7 12.87 Partly Cloudy SCT060 SCT070 37 21 39% 41 76.23 0.0
01 13:15 SE 9 G 19 12.87 A Few Clouds FEW065 36 21 42% 40 76.25 0.0
01 12:55 SE 9 12.87 Fair CLR 36 20 39% 39 76.28 0.0
01 12:35 Vrbl 7 G 19 12.87 Fair CLR 36 20 39% 39 76.3 0.0
01 12:15 Vrbl 6 12.87 Fair CLR 34 22 50% 38 76.33 0.0
01 11:55 SE 11 12.87 Fair CLR 35 21 44% 38 76.35 0.0
01 11:35 SE 11 12.87 A Few Clouds FEW050 35 21 44% 38 76.35 0.0
01 11:15 Vrbl 7 12.87 A Few Clouds FEW050 34 22 50% 38 76.38 0.0
01 10:55 Vrbl 7 12.87 Fair CLR 34 23 53% 39 76.38 0.0
01 10:35 Vrbl 6 11.27 Fair CLR 33 22 52% 37 76.38 0.0
01 10:15 E 6 12.87 Fair CLR 33 23 56% 38 76.4 0.0
01 09:55 Calm 11.27 Fair CLR 32 23 59% 37 76.38 0.0
01 09:35 Calm 11.27 Fair CLR 31 23 62% 35 76.4 0.0
01 09:15 Vrbl 6 11.27 Fair CLR 30 23 66% 34 76.38 0.0
01 08:55 Vrbl 7 11.27 Fair CLR 29 23 70% 33 76.4 0.0
01 08:35 E 9 11.27 Fair CLR 28 24 79% 32 76.4 0.0
01 08:15 E 7 11.27 Fair CLR 27 24 84% 30 76.38 0.0
01 07:35 E 7 9.66 Fog/Mist CLR 24 24 100% 23 76.35 0.0
01 07:15 NE 7 9.66 Fog/Mist CLR 23 23 100% 76.35 0.0
01 06:55 NE 7 9.66 Fog/Mist CLR 23 23 100% 76.33 0.0
01 06:35 NE 7 11.27 A Few Clouds FEW048 23 23 100% 76.33 0.0
01 06:15 NE 6 11.27 A Few Clouds FEW048 22 22 100% 76.3 0.0
01 05:55 NE 7 12.87 A Few Clouds FEW048 22 22 100% 76.3 0.0
01 05:35 NE 6 12.87 A Few Clouds FEW048 23 23 100% 76.3 0.0
01 05:15 Calm 12.87 A Few Clouds FEW047 23 23 100% 76.3 0.0
01 04:55 Calm 12.87 A Few Clouds FEW046 23 23 100% 76.3 0.0
01 04:35 Calm 12.87 A Few Clouds FEW046 23 23 100% 76.28 0.0
01 04:15 Calm 12.87 Partly Cloudy SCT047 24 23 94% 23 76.28 0.0
01 03:55 E 9 12.87 Partly Cloudy SCT047 25 23 89% 26 76.28 0.0
01 03:35 E 7 14.48 A Few Clouds FEW045 26 23 84% 28 76.28 0.0
01 03:15 E 7 14.48 Fair CLR 26 23 84% 28 76.28 0.0
01 02:55 SE 11 14.48 Fair CLR 26 23 84% 28 76.28 0.0
01 02:35 E 9 14.48 Fair CLR 26 23 84% 28 76.28 0.0
01 02:15 E 11 14.48 Fair CLR 27 22 74% 29 76.28 0.0
01 01:55 SE 11 14.48 Fair CLR 28 22 70% 31 76.25 0.0
01 01:35 SE 13 14.48 A Few Clouds FEW055 28 22 70% 31 76.25 0.0
01 01:15 SE 11 14.48 Partly Cloudy SCT060 28 22 70% 31 76.25 0.0
01 00:55 SE 13 14.48 Partly Cloudy SCT055 29 22 66% 32 76.23 0.0
01 00:35 SE 11 G 20 14.48 A Few Clouds FEW050 FEW055 29 21 62% 31 76.23 0.0
Date Time (cdt) Wind (kph) Vis. (km) Weather Sky Cond. Air Dwpt Max. Min. Relative Humidity Wind Chill (°C) Heat Index (°C) altimeter (cm) sea level (mb) 1 hr 3 hr 6 hr
6 hour
Temperature (ºC) Pressure Precipitation (cm)